Time;durP1;ratioP1;P1;durP2;ratioP2;P2;SDS_P1;SDS_P2;PMS_P1;PMS_P2;Temp;Humidity;BMP_temperature;BMP_pressure;BME280_temperature;BME280_humidity;BME280_pressure;Samples;Min_cycle;Max_cycle;Signal;HPM_P1;HPM_P2
2022/02/03 00:05:42;;;;;;;15.88;6.55;;;;;;;-0.71;76.68;100472.91;2134677;83;28730;-66
2022/02/03 00:08:55;;;;;;;17.62;6.60;;;;;;;-0.73;76.67;100478.16;2140818;80;31107;-66
2022/02/03 00:25:11;;;;;;;17.25;7.03;;;;;;;-0.86;76.54;100493.08;2174282;80;31121;-67
2022/02/03 00:31:30;;;;;;;19.15;7.10;;;;;;;-0.94;76.75;100502.28;2172100;82;36674;-67
2022/02/03 00:34:24;;;;;;;15.53;7.00;;;;;;;-0.95;76.82;100507.10;2169481;81;27659;-67
2022/02/03 00:37:34;;;;;;;18.82;7.10;;;;;;;-0.97;76.85;100514.53;2213724;80;28791;-67
2022/02/03 00:50:25;;;;;;;18.27;7.50;;;;;;;-0.97;77.22;100550.03;2217616;80;27666;-67
2022/02/03 00:53:23;;;;;;;16.65;7.17;;;;;;;-0.97;77.32;100552.23;2204375;80;28700;-66
2022/02/03 00:56:35;;;;;;;20.12;7.33;;;;;;;-0.96;77.22;100556.63;2171899;81;31065;-67
2022/02/03 00:59:47;;;;;;;16.57;7.05;;;;;;;-0.95;77.26;100559.70;2172050;82;32958;-67
2022/02/03 01:02:52;;;;;;;19.77;8.55;;;;;;;-0.96;77.16;100562.30;2118771;83;29394;-67
2022/02/03 01:06:01;;;;;;;25.20;8.33;;;;;;;-0.98;77.23;100558.37;2125611;83;27652;-68
2022/02/03 01:09:06;;;;;;;21.62;8.18;;;;;;;-0.96;77.21;100576.34;2125313;83;28663;-67
2022/02/03 01:12:18;;;;;;;20.45;7.80;;;;;;;-0.98;77.12;100575.88;2125200;83;35118;-67
2022/02/03 01:21:58;;;;;;;21.48;9.00;;;;;;;-1.04;77.03;100574.58;2155617;82;27639;-65
2022/02/03 01:44:41;;;;;;;23.02;10.70;;;;;;;-1.24;76.95;100597.73;2194601;81;31654;-73
2022/02/03 01:54:09;;;;;;;22.77;9.08;;;;;;;-1.43;77.00;100605.53;2119146;84;27708;-71
2022/02/03 01:57:13;;;;;;;20.35;9.13;;;;;;;-1.48;77.03;100606.39;2157272;81;28664;-71
2022/02/03 02:00:16;;;;;;;18.30;6.87;;;;;;;-1.51;77.09;100606.37;2155086;82;31646;-70
2022/02/03 02:03:21;;;;;;;17.10;7.00;;;;;;;-1.56;77.16;100605.91;2146228;82;32564;-67
2022/02/03 02:06:52;;;;;;;13.58;6.17;;;;;;;-1.59;77.19;100611.59;2147045;81;30115;-70
2022/02/03 02:37:50;;;;;;;17.57;6.28;;;;;;;-1.82;77.82;100639.92;2122131;83;32889;-70
2022/02/03 02:41:28;;;;;;;19.02;6.20;;;;;;;-1.84;77.86;100646.46;2117736;83;27762;-70
2022/02/03 02:44:05;;;;;;;16.85;6.25;;;;;;;-1.85;77.89;100647.33;2118194;83;27635;-71
2022/02/03 02:47:15;;;;;;;20.70;6.60;;;;;;;-1.87;77.91;100654.77;2085714;84;29024;-71
2022/02/03 02:50:29;;;;;;;16.95;5.40;;;;;;;-1.86;78.07;100659.15;2108347;84;31082;-70
2022/02/03 03:03:44;;;;;;;22.58;5.92;;;;;;;-1.62;79.02;100690.37;2137301;83;28642;-70
2022/02/03 03:30:24;;;;;;;21.37;6.40;;;;;;;-0.86;79.50;100677.19;2162403;80;30554;-69
2022/02/03 03:36:37;;;;;;;19.07;6.58;;;;;;;-0.66;79.58;100685.14;2125359;83;28557;-66
2022/02/03 03:39:45;;;;;;;16.07;6.55;;;;;;;-0.57;79.55;100688.65;2126197;80;31045;-70
2022/02/03 03:42:49;;;;;;;19.60;6.67;;;;;;;-0.50;79.49;100696.59;2099115;83;35791;-69
2022/02/03 03:45:53;;;;;;;15.53;5.47;;;;;;;-0.46;79.43;100698.78;2090871;84;29940;-68
2022/02/03 03:49:27;;;;;;;20.75;5.90;;;;;;;-0.40;79.40;100696.59;2125232;83;27799;-68
2022/02/03 03:52:32;;;;;;;13.65;5.30;;;;;;;-0.36;79.38;100701.00;2162730;80;29253;-68
2022/02/03 04:40:36;;;;;;;19.92;7.20;;;;;;;-0.09;79.84;100700.58;2185109;80;27690;-70
2022/02/03 05:02:05;;;;;;;17.95;6.40;;;;;;;0.56;80.13;100709.77;2161521;82;28495;-69
2022/02/03 05:05:22;;;;;;;20.17;5.85;;;;;;;0.63;80.02;100706.25;2121916;82;32349;-69
2022/02/03 05:08:47;;;;;;;18.65;6.33;;;;;;;0.71;80.00;100704.45;2115630;82;32892;-67
2022/02/03 05:12:20;;;;;;;18.40;6.17;;;;;;;0.77;79.92;100702.69;2120979;82;29269;-68
2022/02/03 05:15:44;;;;;;;21.87;6.28;;;;;;;0.85;79.89;100708.81;2121565;83;27664;-68
2022/02/03 05:45:00;;;;;;;22.30;6.33;;;;;;;1.16;79.32;100720.60;2077025;84;33182;-66
2022/02/03 05:48:39;;;;;;;15.90;5.95;;;;;;;1.16;79.23;100719.28;2094798;84;29727;-69
2022/02/03 06:04:28;;;;;;;17.10;5.12;;;;;;;1.18;79.18;100735.53;2038668;86;29525;-67
2022/02/03 06:14:07;;;;;;;18.25;6.85;;;;;;;1.17;79.17;100744.75;2052378;86;30904;-69
2022/02/03 06:17:15;;;;;;;16.90;6.37;;;;;;;1.17;79.10;100746.97;2017333;87;33383;-67
2022/02/03 06:23:28;;;;;;;18.30;6.80;;;;;;;1.19;79.10;100748.27;1966772;89;27757;-65
2022/02/03 06:29:55;;;;;;;22.82;8.05;;;;;;;1.20;79.10;100747.39;2048648;86;32032;-68
2022/02/03 06:32:55;;;;;;;21.68;7.97;;;;;;;1.21;79.09;100750.47;2050252;86;32964;-67
2022/02/03 06:35:57;;;;;;;19.45;7.65;;;;;;;1.21;79.07;100754.00;2081561;82;29340;-66
2022/02/03 06:38:58;;;;;;;24.37;9.10;;;;;;;1.24;79.07;100757.52;2160855;82;27776;-66
2022/02/03 06:42:05;;;;;;;23.87;9.18;;;;;;;1.25;79.04;100752.64;2159763;82;29621;-66
2022/02/03 06:45:15;;;;;;;24.82;10.40;;;;;;;1.26;79.00;100753.97;2189028;79;31694;-68
2022/02/03 06:48:17;;;;;;;28.02;9.98;;;;;;;1.26;78.96;100754.40;2198219;81;33753;-66
2022/02/03 06:51:25;;;;;;;26.10;10.75;;;;;;;1.28;78.97;100755.27;2198101;81;30316;-66
2022/02/03 06:54:30;;;;;;;21.95;10.85;;;;;;;1.31;79.06;100751.31;2197254;81;27645;-66
2022/02/03 06:57:37;;;;;;;24.77;11.73;;;;;;;1.34;79.11;100754.80;2198702;79;29728;-66
2022/02/03 07:00:39;;;;;;;26.70;12.37;;;;;;;1.39;79.09;100748.64;2197243;81;31433;-69
2022/02/03 07:03:38;;;;;;;29.98;13.85;;;;;;;1.43;79.07;100747.75;2197015;81;33585;-68
2022/02/03 07:06:37;;;;;;;36.33;13.60;;;;;;;1.48;79.11;100749.47;2214795;79;29500;-69
2022/02/03 07:09:39;;;;;;;28.60;9.65;;;;;;;1.53;79.09;100756.50;2233894;79;27725;-68
2022/02/03 07:12:41;;;;;;;27.25;9.33;;;;;;;1.58;79.10;100748.09;2234846;79;29426;-67
2022/02/03 07:15:42;;;;;;;25.90;8.45;;;;;;;1.63;79.00;100752.48;2232553;79;30839;-66
2022/02/03 07:18:44;;;;;;;13.38;7.40;;;;;;;1.68;78.96;100752.45;2216947;80;32425;-66
2022/02/03 07:21:47;;;;;;;22.22;7.75;;;;;;;1.75;78.94;100749.33;2217587;80;30125;-66
2022/02/03 07:24:51;;;;;;;24.87;7.25;;;;;;;1.79;78.86;100751.94;2217850;80;27926;-70
2022/02/03 07:27:53;;;;;;;22.13;7.00;;;;;;;1.87;78.81;100758.49;2183823;80;28605;-70
2022/02/03 07:30:55;;;;;;;24.20;7.83;;;;;;;1.95;78.94;100756.70;2166460;82;31876;-70
2022/02/03 07:34:03;;;;;;;24.15;7.00;;;;;;;2.04;78.71;100750.90;2134017;83;32966;-72
2022/02/03 07:37:00;;;;;;;24.05;7.42;;;;;;;2.15;78.88;100745.53;2134150;82;30130;-70
2022/02/03 07:40:03;;;;;;;23.77;7.75;;;;;;;2.26;78.88;100746.31;2134442;83;28225;-71
2022/02/03 07:43:09;;;;;;;22.67;6.78;;;;;;;2.37;78.88;100744.48;2157556;80;28646;-71
2022/02/03 07:46:09;;;;;;;25.62;7.78;;;;;;;2.49;78.88;100748.77;2134923;82;31128;-65
2022/02/03 07:49:10;;;;;;;25.40;7.80;;;;;;;2.63;78.74;100734.56;2134309;82;32377;-66
2022/02/03 07:52:12;;;;;;;21.20;6.90;;;;;;;2.77;78.69;100727.78;2134083;82;29373;-67
2022/02/03 07:55:16;;;;;;;19.27;7.72;;;;;;;2.94;78.68;100724.51;2165340;80;27673;-69
2022/02/03 07:58:18;;;;;;;25.02;8.88;;;;;;;3.10;78.60;100721.68;2171190;82;29491;-68
2022/02/03 08:01:21;;;;;;;25.80;10.18;;;;;;;3.26;78.33;100721.92;2171611;82;32077;-69
2022/02/03 08:04:25;;;;;;;26.60;10.70;;;;;;;3.43;78.28;100711.56;2186154;80;33111;-71
2022/02/03 08:07:26;;;;;;;22.73;10.75;;;;;;;3.59;78.07;100705.62;2216836;80;29334;-67
2022/02/03 08:10:36;;;;;;;28.90;10.48;;;;;;;3.76;78.10;100701.37;2217328;80;27574;-68
2022/02/03 08:13:35;;;;;;;24.80;11.30;;;;;;;3.90;77.83;100702.50;2171731;80;28584;-68
2022/02/03 08:16:55;;;;;;;29.12;11.12;;;;;;;3.99;77.56;100690.42;2152670;80;31199;-70
2022/02/03 08:20:04;;;;;;;30.30;12.50;;;;;;;4.09;77.16;100691.14;2162874;82;33060;-68
2022/02/03 08:23:52;;;;;;;29.05;12.53;;;;;;;4.16;77.10;100683.53;2106585;84;29549;-68
2022/02/03 08:26:25;;;;;;;27.15;12.58;;;;;;;4.24;76.84;100675.44;2070563;85;28649;-70
2022/02/03 08:32:30;;;;;;;29.12;10.88;;;;;;;4.45;76.49;100660.91;2045659;85;31061;-70
2022/02/03 08:35:46;;;;;;;34.85;12.15;;;;;;;4.60;76.39;100655.78;2047673;85;29769;-69
2022/02/03 08:38:48;;;;;;;28.70;11.33;;;;;;;4.79;76.21;100657.61;2050839;85;29368;-70
2022/02/03 08:41:48;;;;;;;24.18;9.18;;;;;;;4.96;75.95;100645.77;2130698;83;27733;-71
2022/02/03 08:44:53;;;;;;;29.40;11.53;;;;;;;5.05;75.28;100647.36;2103371;83;28713;-67
2022/02/03 08:47:54;;;;;;;32.53;13.10;;;;;;;5.16;75.44;100644.91;2092799;82;31063;-68
2022/02/03 08:50:56;;;;;;;36.00;14.63;;;;;;;5.23;75.27;100648.73;2075861;85;32982;-70
2022/02/03 08:54:06;;;;;;;31.52;11.75;;;;;;;5.25;74.91;100650.47;2095265;84;30178;-67
2022/02/03 08:57:12;;;;;;;30.68;11.18;;;;;;;5.27;74.79;100651.31;2110678;82;27691;-69
2022/02/03 09:50:29;;;;;;;19.98;6.30;;;;;;;6.18;71.69;100595.09;2060945;86;29610;-68
2022/02/03 10:00:00;;;;;;;20.62;6.62;;;;;;;6.42;70.93;100587.37;2023233;86;30512;-65
2022/02/03 10:03:02;;;;;;;24.57;7.45;;;;;;;6.49;70.58;100582.74;2022053;87;27738;-66
2022/02/03 10:06:08;;;;;;;19.70;7.08;;;;;;;6.55;70.53;100581.22;2028507;86;28715;-66
2022/02/03 10:09:08;;;;;;;;;;;;;;;6.61;70.21;100581.05;1989297;88;32160;-68
2022/02/03 10:12:12;;;;;;;15.55;6.67;;;;;;;6.68;69.78;100572.43;2024243;87;33387;-68
2022/02/03 10:15:14;;;;;;;13.32;4.75;;;;;;;6.73;69.76;100571.84;2022321;86;29697;-67
2022/02/03 10:18:28;;;;;;;17.87;5.97;;;;;;;6.77;69.28;100568.19;2015767;86;27869;-68
2022/02/03 10:21:30;;;;;;;12.20;4.67;;;;;;;6.81;69.09;100565.81;1971366;89;28798;-67
2022/02/03 10:24:36;;;;;;;78.17;41.58;;;;;;;6.84;68.57;100559.08;2009220;86;32327;-67
2022/02/03 10:27:45;;;;;;;42.93;20.32;;;;;;;6.87;68.01;100554.10;2010139;88;34080;-65
2022/02/03 10:31:01;;;;;;;20.48;6.33;;;;;;;6.88;67.77;100547.86;2012378;87;29350;-65
2022/02/03 10:34:06;;;;;;;12.23;4.62;;;;;;;6.93;67.48;100544.61;1994362;88;27770;-65
2022/02/03 10:40:52;;;;;;;32.10;13.25;;;;;;;6.94;66.96;100535.70;2144233;82;32173;-65
2022/02/03 10:47:14;;;;;;;58.45;36.42;;;;;;;7.01;66.50;100523.06;2172999;80;29713;-65
2022/02/03 10:56:40;;;;;;;27.35;11.93;;;;;;;7.04;66.40;100526.08;2131064;82;31033;-67
2022/02/03 10:59:57;;;;;;;27.50;14.25;;;;;;;7.05;66.16;100527.38;2128818;83;33984;-66
2022/02/03 11:09:13;;;;;;;21.90;11.88;;;;;;;7.06;65.80;100516.25;2088398;85;28723;-67
2022/02/03 11:12:14;;;;;;;42.00;23.65;;;;;;;7.07;65.77;100518.00;2125425;83;32213;-66
2022/02/03 11:15:12;;;;;;;42.75;20.60;;;;;;;7.09;65.34;100522.82;2082239;84;32962;-67
2022/02/03 11:18:15;;;;;;;24.52;10.60;;;;;;;7.09;65.29;100515.72;2039591;84;30733;-67
2022/02/03 11:21:17;;;;;;;38.60;21.45;;;;;;;7.11;65.28;100502.33;2177658;81;27684;-67
2022/02/03 11:24:28;;;;;;;28.23;12.03;;;;;;;7.14;65.35;100503.58;2165202;81;29110;-68
2022/02/03 11:27:37;;;;;;;16.85;6.80;;;;;;;7.15;64.82;100505.32;2125236;83;31021;-67
2022/02/03 11:37:21;;;;;;;21.12;9.18;;;;;;;7.14;64.75;100496.91;2155909;81;27727;-68
2022/02/03 11:40:38;;;;;;;26.17;14.33;;;;;;;7.16;64.78;100497.74;2146216;81;29622;-67
2022/02/03 11:53:39;;;;;;;28.25;14.07;;;;;;;7.21;64.50;100472.27;2151147;81;27675;-66
2022/02/03 11:57:05;;;;;;;23.32;11.83;;;;;;;7.22;64.83;100467.36;2116403;82;29504;-66
2022/02/03 12:03:12;;;;;;;127.45;63.20;;;;;;;7.31;64.48;100463.04;2150547;81;32953;-66
2022/02/03 12:19:41;;;;;;;33.73;9.88;;;;;;;7.45;63.61;100443.45;2121617;83;29784;-66
2022/02/03 12:22:55;;;;;;;20.50;11.48;;;;;;;7.47;63.31;100437.19;2121503;83;30698;-68
2022/02/03 12:25:59;;;;;;;14.35;6.12;;;;;;;7.49;63.54;100434.02;2098020;83;27775;-67
2022/02/03 12:29:07;;;;;;;15.40;5.72;;;;;;;7.50;62.64;100437.98;2121642;83;29927;-64
2022/02/03 12:38:24;;;;;;;19.05;8.00;;;;;;;7.57;62.30;100422.16;2057382;86;30605;-65
2022/02/03 12:41:34;;;;;;;15.72;6.80;;;;;;;7.59;61.90;100414.13;2014991;87;27839;-66
2022/02/03 12:44:28;;;;;;;25.82;10.75;;;;;;;7.59;61.73;100406.98;2025987;86;28461;-66
2022/02/03 12:47:31;;;;;;;16.57;8.95;;;;;;;7.60;62.20;100398.55;2037085;87;31145;-67
2022/02/03 12:50:39;;;;;;;20.72;12.95;;;;;;;7.60;62.26;100391.88;2037077;87;33068;-66
2022/02/03 12:53:43;;;;;;;22.67;11.15;;;;;;;7.61;62.49;100392.28;2037677;85;29387;-66
2022/02/03 12:56:44;;;;;;;14.30;6.75;;;;;;;7.63;62.39;100386.89;2042212;85;27687;-68
2022/02/03 12:59:49;;;;;;;21.65;10.20;;;;;;;7.64;61.97;100381.48;2037280;87;29901;-68
2022/02/03 13:02:57;;;;;;;24.65;12.88;;;;;;;7.64;62.08;100372.63;2015705;87;31909;-66
2022/02/03 13:06:04;;;;;;;21.23;11.78;;;;;;;7.64;61.99;100369.48;2038875;85;33072;-68
2022/02/03 13:09:10;;;;;;;20.37;8.88;;;;;;;7.66;61.79;100373.45;2071033;85;27705;-67
2022/02/03 13:12:18;;;;;;;18.02;6.87;;;;;;;7.65;61.68;100375.23;2063672;85;27752;-66
2022/02/03 13:15:39;;;;;;;15.70;6.03;;;;;;;7.68;61.71;100368.45;2030171;85;28675;-67
2022/02/03 13:18:49;;;;;;;11.18;5.65;;;;;;;7.69;61.48;100373.34;2107203;83;31053;-66
2022/02/03 13:22:01;;;;;;;19.15;7.60;;;;;;;7.69;61.16;100369.34;2071082;84;33024;-69
2022/02/03 13:28:31;;;;;;;15.75;6.47;;;;;;;7.65;60.30;100368.56;2119206;83;27740;-69
2022/02/03 13:31:54;;;;;;;19.27;5.87;;;;;;;7.63;60.62;100368.22;2032142;87;28696;-69
2022/02/03 13:35:07;;;;;;;17.05;5.47;;;;;;;7.59;60.65;100368.33;2080741;85;31057;-71
2022/02/03 13:38:02;;;;;;;19.70;6.42;;;;;;;7.57;60.67;100366.66;2088756;84;33147;-69
2022/02/03 13:41:11;;;;;;;15.30;6.30;;;;;;;7.55;60.60;100363.17;2137572;81;29330;-69
2022/02/03 13:44:16;;;;;;;13.40;5.95;;;;;;;7.54;60.45;100358.76;2140185;82;27597;-68
2022/02/03 13:47:25;;;;;;;15.83;5.58;;;;;;;7.52;60.31;100355.27;2142241;81;28662;-69
2022/02/03 13:50:30;;;;;;;16.67;5.08;;;;;;;7.52;60.43;100350.83;2139844;83;31018;-69
2022/02/03 13:53:40;;;;;;;20.65;7.33;;;;;;;7.54;60.46;100349.43;2139784;82;34004;-69
2022/02/03 14:10:34;;;;;;;10.70;4.35;;;;;;;7.59;59.89;100348.81;2167476;81;27635;-68
2022/02/03 14:13:57;;;;;;;17.85;6.08;;;;;;;7.60;59.82;100350.08;2198232;81;30195;-68
2022/02/03 14:20:25;;;;;;;13.55;5.33;;;;;;;7.59;59.30;100342.14;2202019;79;28705;-68
2022/02/03 14:29:50;;;;;;;45.38;20.75;;;;;;;7.54;59.25;100336.95;2172841;80;30663;-68
2022/02/03 14:32:56;;;;;;;34.92;13.50;;;;;;;7.53;59.59;100333.88;2192404;79;27694;-68
2022/02/03 14:35:59;;;;;;;44.55;19.92;;;;;;;7.54;59.88;100328.95;2237450;79;29390;-70
2022/02/03 14:39:21;;;;;;;32.45;16.45;;;;;;;7.53;59.66;100319.22;2237960;79;32100;-69
2022/02/03 14:42:08;;;;;;;23.18;11.48;;;;;;;7.53;59.72;100316.55;2227033;79;32434;-67
2022/02/03 14:45:12;;;;;;;;;;;;;;;7.49;59.30;100324.28;2204904;80;29315;-69
2022/02/03 14:48:15;;;;;;;28.62;14.20;;;;;;;7.44;59.14;100311.13;2202330;80;27823;-69
2022/02/03 14:51:23;;;;;;;34.50;16.48;;;;;;;7.39;59.27;100309.08;2201891;80;28670;-69
2022/02/03 15:00:48;;;;;;;60.20;23.45;;;;;;;7.33;59.56;100299.97;2202185;80;30177;-70
2022/02/03 15:03:54;;;;;;;50.33;22.52;;;;;;;7.31;59.65;100301.81;2199916;79;27701;-68
2022/02/03 15:07:01;;;;;;;50.23;22.52;;;;;;;7.26;59.44;100300.66;2163307;82;28662;-70
2022/02/03 15:13:12;;;;;;;42.93;21.70;;;;;;;7.18;59.48;100291.20;2174804;79;33770;-69
2022/02/03 15:16:10;;;;;;;53.33;24.92;;;;;;;7.14;59.64;100286.45;2192708;80;29369;-70
2022/02/03 15:19:12;;;;;;;35.68;18.60;;;;;;;7.09;59.71;100283.06;2163841;81;27691;-69
2022/02/03 15:22:14;;;;;;;32.38;14.73;;;;;;;7.06;59.69;100278.73;2107092;84;28322;-67
2022/02/03 15:25:16;;;;;;;44.25;21.73;;;;;;;7.04;59.89;100273.03;2045665;86;31234;-67
2022/02/03 15:28:19;;;;;;;41.25;22.02;;;;;;;6.99;59.95;100275.41;2047471;85;33119;-71
2022/02/03 15:31:30;;;;;;;49.90;25.12;;;;;;;6.96;60.11;100264.86;2045649;87;30164;-67
2022/02/03 15:34:28;;;;;;;62.50;32.30;;;;;;;6.95;60.18;100267.59;2045230;85;27699;-70
2022/02/03 15:37:30;;;;;;;47.75;27.07;;;;;;;6.92;60.19;100266.36;2045606;87;28659;-67
2022/02/03 15:40:34;;;;;;;65.20;29.12;;;;;;;6.89;60.31;100258.00;2045375;85;31947;-69
2022/02/03 15:43:41;;;;;;;68.05;32.78;;;;;;;6.86;60.29;100254.14;2045768;86;33591;-69
2022/02/03 15:46:56;;;;;;;59.15;26.12;;;;;;;6.81;60.35;100260.08;2045797;87;29324;-68
2022/02/03 16:18:57;;;;;;;25.35;8.63;;;;;;;6.49;61.58;100243.41;2082052;85;29392;-68
2022/02/03 16:22:05;;;;;;;27.27;9.88;;;;;;;6.47;61.67;100243.92;2103928;83;27545;-68
2022/02/03 16:25:53;;;;;;;24.10;9.58;;;;;;;6.45;61.87;100243.10;2105997;81;28751;-65
2022/02/03 16:40:51;;;;;;;28.42;14.55;;;;;;;6.45;62.58;100240.44;2164997;81;32987;-67
2022/02/03 16:51:48;;;;;;;46.70;22.67;;;;;;;6.23;65.06;100228.73;2149677;82;29365;-66
2022/02/03 16:54:39;;;;;;;44.55;24.23;;;;;;;6.19;65.32;100228.41;2192667;79;27848;-70
2022/02/03 16:57:41;;;;;;;31.55;16.80;;;;;;;6.16;65.53;100227.17;2198466;80;29440;-68
2022/02/03 17:00:46;;;;;;;25.70;12.63;;;;;;;6.10;65.76;100220.75;2198280;81;31024;-69
2022/02/03 17:03:47;;;;;;;25.00;11.43;;;;;;;6.02;65.91;100220.11;2200688;79;34800;-68
2022/02/03 17:06:49;;;;;;;33.50;16.93;;;;;;;6.01;66.24;100223.68;2197801;81;29321;-69
2022/02/03 17:09:57;;;;;;;31.33;15.85;;;;;;;5.97;66.41;100214.91;2121620;82;27677;-68
2022/02/03 17:13:00;;;;;;;31.30;15.90;;;;;;;5.95;66.77;100216.74;2137933;79;27695;-66
2022/02/03 17:16:02;;;;;;;32.17;17.98;;;;;;;5.90;66.93;100216.89;2220866;79;32159;-68
2022/02/03 17:19:04;;;;;;;28.10;16.40;;;;;;;5.86;67.07;100213.06;2155286;82;33027;-67
2022/02/03 17:22:13;;;;;;;33.63;19.02;;;;;;;5.85;67.29;100209.99;2122331;80;29718;-70
2022/02/03 17:25:18;;;;;;;32.55;19.52;;;;;;;5.83;67.34;100207.83;2149577;81;27722;-67
2022/02/03 17:28:25;;;;;;;30.02;18.80;;;;;;;5.84;67.55;100204.27;2134748;82;28640;-67
2022/02/03 17:31:45;;;;;;;37.42;18.80;;;;;;;5.84;67.76;100202.45;2134329;82;27871;-66
2022/02/03 18:07:55;;;;;;;46.10;22.02;;;;;;;5.60;69.45;100182.39;2018579;88;29170;-66
2022/02/03 18:17:32;;;;;;;36.90;20.70;;;;;;;5.47;69.71;100171.70;2016247;87;29133;-66
2022/02/03 18:30:30;;;;;;;21.57;12.70;;;;;;;5.38;70.29;100166.69;2045696;83;28376;-67
2022/02/03 18:53:16;;;;;;;25.05;12.00;;;;;;;5.24;71.26;100153.37;2001700;87;28074;-67
2022/02/03 18:56:28;;;;;;;43.92;18.80;;;;;;;5.22;71.39;100152.54;2021793;86;34236;-67
2022/02/03 18:59:46;;;;;;;56.18;33.42;;;;;;;5.19;71.46;100147.31;2026433;86;29398;-67
2022/02/03 19:16:08;;;;;;;36.33;19.20;;;;;;;5.16;72.03;100146.07;2025789;84;30527;-67
2022/02/03 20:05:55;;;;;;;44.88;18.15;;;;;;;5.10;73.45;100136.98;2055269;86;29920;-67
2022/02/03 20:09:06;;;;;;;87.95;44.70;;;;;;;5.09;73.45;100137.89;2069957;85;27716;-67
2022/02/03 20:12:00;;;;;;;79.90;38.45;;;;;;;5.07;73.60;100131.75;2088829;84;28687;-67
2022/02/03 20:15:07;;;;;;;73.70;36.50;;;;;;;5.06;73.67;100130.87;2062313;85;31161;-67
2022/02/03 20:18:12;;;;;;;63.48;34.95;;;;;;;5.07;73.78;100129.95;2085967;85;33187;-67
2022/02/03 20:21:14;;;;;;;56.25;31.48;;;;;;;5.07;73.75;100131.75;2108193;82;29349;-67
2022/02/03 20:24:16;;;;;;;53.40;29.02;;;;;;;5.07;73.92;100135.73;2119851;83;27835;-66
2022/02/03 20:27:21;;;;;;;36.50;20.02;;;;;;;5.07;74.01;100129.10;2120337;84;29950;-66
2022/02/03 20:30:23;;;;;;;44.38;19.07;;;;;;;5.07;74.04;100130.43;2119666;83;32190;-67
2022/02/03 20:33:25;;;;;;;42.13;17.90;;;;;;;5.07;74.09;100127.30;2099896;82;34195;-68
2022/02/03 20:36:27;;;;;;;47.27;25.82;;;;;;;5.06;74.14;100122.91;2100352;82;29260;-65
2022/02/03 20:39:29;;;;;;;38.45;19.10;;;;;;;5.05;74.19;100111.87;2120654;84;27641;-66
2022/02/03 20:42:31;;;;;;;41.35;21.62;;;;;;;5.01;74.20;100102.28;2085405;85;29655;-68
2022/02/03 20:45:34;;;;;;;42.93;20.20;;;;;;;4.99;74.30;100107.62;2093852;82;32399;-68
2022/02/03 20:48:47;;;;;;;41.85;19.98;;;;;;;4.97;74.37;100096.64;2120495;84;34315;-68
2022/02/03 20:51:49;;;;;;;40.85;20.20;;;;;;;4.94;74.43;100095.41;2067294;85;30466;-68
2022/02/03 20:54:51;;;;;;;37.08;16.73;;;;;;;4.92;74.46;100095.90;2095955;84;27786;-68
2022/02/03 20:57:53;;;;;;;39.50;17.02;;;;;;;4.91;74.57;100091.06;2070895;85;29353;-68
2022/02/03 21:01:05;;;;;;;30.05;16.05;;;;;;;4.90;74.65;100088.44;2128881;83;31178;-68
2022/02/03 21:04:08;;;;;;;29.35;15.18;;;;;;;4.90;74.79;100083.12;2121251;83;33757;-68
2022/02/03 21:07:09;;;;;;;28.32;14.15;;;;;;;4.92;74.87;100086.61;2124723;83;29592;-68
2022/02/03 21:10:13;;;;;;;32.63;14.85;;;;;;;4.93;74.98;100085.70;2127966;82;27679;-68
2022/02/03 21:13:15;;;;;;;29.60;15.10;;;;;;;4.93;75.11;100077.30;2129367;83;28661;-68
2022/02/03 21:16:17;;;;;;;27.07;13.85;;;;;;;4.94;75.09;100079.47;2119500;83;31020;-68
2022/02/03 21:19:22;;;;;;;27.65;12.93;;;;;;;4.94;75.08;100072.40;2092779;85;33884;-67
2022/02/03 21:22:24;;;;;;;27.77;13.28;;;;;;;4.95;75.12;100074.58;2084761;84;27792;-71
2022/02/03 21:25:36;;;;;;;23.87;12.25;;;;;;;4.95;75.08;100070.16;2088707;83;28350;-75
2022/02/03 21:28:38;;;;;;;27.80;13.05;;;;;;;4.96;75.12;100063.93;2073060;84;27757;-74
2022/02/03 21:31:39;;;;;;;32.08;14.20;;;;;;;4.95;75.12;100060.86;2092954;85;31999;-72
2022/02/03 21:34:42;;;;;;;32.80;13.48;;;;;;;4.93;75.14;100058.71;2092718;85;48464;-72
2022/02/03 21:37:45;;;;;;;33.60;15.65;;;;;;;4.92;75.21;100063.61;2125897;83;29390;-71
2022/02/03 21:40:47;;;;;;;84.07;28.10;;;;;;;4.91;75.33;100061.86;2132030;83;27783;-75
2022/02/03 21:43:48;;;;;;;52.25;21.15;;;;;;;4.90;75.35;100062.78;2128064;83;28630;-75
2022/02/03 21:46:50;;;;;;;52.50;20.65;;;;;;;4.90;75.42;100057.91;2092807;85;31016;-72
2022/02/03 21:49:53;;;;;;;34.67;16.32;;;;;;;4.90;75.51;100065.43;2091811;85;33184;-73
2022/02/03 21:53:02;;;;;;;44.00;21.70;;;;;;;4.90;75.51;100072.06;2122893;83;29342;-75
2022/02/03 21:56:04;;;;;;;37.65;15.98;;;;;;;4.91;75.57;100067.17;2212188;79;27709;-74
2022/02/03 21:59:08;;;;;;;24.85;13.38;;;;;;;4.91;75.61;100067.17;2196280;81;29474;-74
2022/02/03 22:02:11;;;;;;;32.85;14.95;;;;;;;4.92;75.67;100061.39;2196275;81;33036;-75
2022/02/03 22:05:14;;;;;;;33.23;14.63;;;;;;;4.92;75.66;100058.73;2196721;79;33980;-74
2022/02/03 22:08:16;;;;;;;50.80;25.77;;;;;;;4.93;75.72;100060.48;2206490;79;29382;-73
2022/02/03 22:11:17;;;;;;;71.25;40.95;;;;;;;4.92;75.76;100057.41;2196460;81;27861;-70
2022/02/03 22:14:19;;;;;;;61.02;33.67;;;;;;;4.93;75.84;100061.81;2196162;79;29413;-70
2022/02/03 22:17:20;;;;;;;46.50;26.12;;;;;;;4.94;75.90;100059.12;2194471;80;32123;-76
2022/02/03 22:20:29;;;;;;;47.38;25.15;;;;;;;4.96;75.91;100056.41;2196540;80;32939;-74
2022/02/03 22:49:35;;;;;;;49.00;23.90;;;;;;;4.98;76.22;100061.22;2199643;80;31004;-73
2022/02/03 22:52:42;;;;;;;32.35;16.40;;;;;;;4.99;76.28;100056.33;2201448;79;33104;-72
2022/02/03 22:55:41;;;;;;;31.10;13.25;;;;;;;4.98;76.28;100051.92;2192225;79;29340;-73
2022/02/03 23:02:03;;;;;;;26.68;13.83;;;;;;;4.99;76.33;100054.99;2178802;79;28683;-70
2022/02/03 23:05:07;;;;;;;31.80;15.98;;;;;;;4.99;76.31;100057.17;2192424;80;31844;-70
2022/02/03 23:08:22;;;;;;;37.83;16.57;;;;;;;4.99;76.35;100057.17;2201324;79;32965;-72
2022/02/03 23:15:02;;;;;;;34.03;17.12;;;;;;;4.98;76.43;100054.11;2163075;82;27740;-71
2022/02/03 23:17:52;;;;;;;30.32;14.93;;;;;;;4.99;76.53;100047.03;2159615;82;29079;-74
2022/02/03 23:21:27;;;;;;;22.98;11.57;;;;;;;5.00;76.54;100045.64;2173322;79;31035;-74
2022/02/03 23:24:08;;;;;;;25.68;12.13;;;;;;;5.00;76.60;100040.34;2233951;79;32996;-73
2022/02/03 23:30:23;;;;;;;24.90;12.93;;;;;;;4.99;76.59;100041.25;2238114;79;27744;-75
2022/02/03 23:33:28;;;;;;;19.75;11.18;;;;;;;4.98;76.57;100032.02;2235684;79;28641;-73
2022/02/03 23:36:29;;;;;;;23.07;12.63;;;;;;;4.97;76.63;100034.26;2237882;79;31896;-75
2022/02/03 23:39:45;;;;;;;25.65;13.62;;;;;;;4.99;76.62;100040.39;2237952;79;33026;-75
